Terminal Aerodrome Forecast
Issued by NWS

Home | Current Version | Previous Version | Text Only | Print | Product List | Glossary On
Versions: 1 2 3 4 5 6 7 8 9 10 11 12 13 14 15 16 17 18 19 20 21 22 23 24 25 26 27 28 29 30 31 32
000
FTUS44 KOUN 011135
TAFGAG
TAF
KGAG 011135Z 0112/0212 32012KT P6SM OVC080
     FM011500 35014G19KT P6SM BKN025 PROB30 0121/0203 5SM -RA BR
      OVC015
     FM020300 32007KT P6SM BKN025=

USA.gov is the U.S. government's official web portal to all federal, state and local government web resources and services.